Terminal Aerodrome Forecast
Issued by NWS Indianapolis, IN

Home | Current Version | Previous Version | Text Only | Print | Product List | Glossary On
Versions: 1 2 3 4 5 6 7 8 9 10 11 12 13 14 15 16 17 18 19 20 21 22 23 24 25 26 27 28 29
000
FTUS43 KIND 281100
TAFIND
TAF
KIND 281128Z 2812/2918 13005KT P6SM FEW120 SCT250
     FM281700 15010KT P6SM SCT100 BKN250
     FM282300 14012KT P6SM SCT080 BKN150
     FM290800 17015G23KT P6SM VCSH OVC040=

USA.gov is the U.S. government's official web portal to all federal, state and local government web resources and services.